Monte Alegre do Sul, Brazil
Current Conditions -  °F | °C
As of 11:00 AM on Saturday 25 Oct 2014 (Local Time) from SBKP Reporting Station
Broken Clouds Broken Clouds  
Wind Chill: 73°   Ceiling: 10000
Heat Index: 73°   Visibility: 6mi
Dew Point: 61°   Wind: 5mph
Humidity: 65%   Direction: 330°NNW
Pressure: 30.06"   Gusts: NA
Location:  22.68°S, 46.68°W
Report Text: SBKP 251300Z 33004KT 240V360 9999 FEW023 BKN100 23/16 Q1018
Loading
Personal Weather Stations






























Interactive Weather Map
Tropical Storm Tracking
New forecast layout! Learn more

10-Day Weather Forecast

Advertisements
Track Severe Weather on mobile